sensor_id;sensor_type;location;lat;lon;timestamp;temperature;humidity
19359;DHT22;9815;52.334;20.890;2023-09-19T00:00:44;19.30;99.90
19359;DHT22;9815;52.334;20.890;2023-09-19T00:03:14;19.20;99.90
19359;DHT22;9815;52.334;20.890;2023-09-19T00:05:43;19.30;99.90
19359;DHT22;9815;52.334;20.890;2023-09-19T00:08:13;19.30;99.90
19359;DHT22;9815;52.334;20.890;2023-09-19T00:10:42;19.20;99.90
19359;DHT22;9815;52.334;20.890;2023-09-19T00:13:12;19.20;99.90
19359;DHT22;9815;52.334;20.890;2023-09-19T00:15:44;19.20;99.90
19359;DHT22;9815;52.334;20.890;2023-09-19T00:18:17;19.20;99.90
19359;DHT22;9815;52.334;20.890;2023-09-19T00:20:46;19.10;99.90
19359;DHT22;9815;52.334;20.890;2023-09-19T00:23:17;19.10;99.90
19359;DHT22;9815;52.334;20.890;2023-09-19T00:25:47;19.10;99.90
19359;DHT22;9815;52.334;20.890;2023-09-19T00:28:17;19.10;99.90
19359;DHT22;9815;52.334;20.890;2023-09-19T00:30:47;19.10;99.90
19359;DHT22;9815;52.334;20.890;2023-09-19T00:33:18;19.10;99.90
19359;DHT22;9815;52.334;20.890;2023-09-19T00:35:47;19.10;99.90
19359;DHT22;9815;52.334;20.890;2023-09-19T00:38:16;19.10;99.90
19359;DHT22;9815;52.334;20.890;2023-09-19T00:40:47;19.10;99.90
19359;DHT22;9815;52.334;20.890;2023-09-19T00:43:17;19.10;99.90
19359;DHT22;9815;52.334;20.890;2023-09-19T00:45:48;19.00;99.90
19359;DHT22;9815;52.334;20.890;2023-09-19T00:48:19;19.00;99.90
19359;DHT22;9815;52.334;20.890;2023-09-19T00:50:48;19.00;99.90
19359;DHT22;9815;52.334;20.890;2023-09-19T00:53:20;19.00;99.90
19359;DHT22;9815;52.334;20.890;2023-09-19T00:55:50;18.90;99.90
19359;DHT22;9815;52.334;20.890;2023-09-19T00:58:21;18.90;99.90
19359;DHT22;9815;52.334;20.890;2023-09-19T01:00:49;18.90;99.90
19359;DHT22;9815;52.334;20.890;2023-09-19T01:03:18;18.90;99.90
19359;DHT22;9815;52.334;20.890;2023-09-19T01:05:46;18.90;99.90
19359;DHT22;9815;52.334;20.890;2023-09-19T01:08:15;18.90;99.90
19359;DHT22;9815;52.334;20.890;2023-09-19T01:10:51;18.80;99.90
19359;DHT22;9815;52.334;20.890;2023-09-19T01:13:28;18.80;99.90
19359;DHT22;9815;52.334;20.890;2023-09-19T01:16:03;18.80;99.90
19359;DHT22;9815;52.334;20.890;2023-09-19T01:18:43;18.80;99.90
19359;DHT22;9815;52.334;20.890;2023-09-19T01:21:21;18.80;99.90
19359;DHT22;9815;52.334;20.890;2023-09-19T01:24:12;18.70;99.90
19359;DHT22;9815;52.334;20.890;2023-09-19T01:26:56;18.70;99.90
19359;DHT22;9815;52.334;20.890;2023-09-19T01:29:37;18.70;99.90
19359;DHT22;9815;52.334;20.890;2023-09-19T01:32:08;18.70;99.90
19359;DHT22;9815;52.334;20.890;2023-09-19T01:34:44;18.70;99.90
19359;DHT22;9815;52.334;20.890;2023-09-19T01:37:14;18.70;99.90
19359;DHT22;9815;52.334;20.890;2023-09-19T01:39:49;18.70;99.90
19359;DHT22;9815;52.334;20.890;2023-09-19T01:42:27;18.60;99.90
19359;DHT22;9815;52.334;20.890;2023-09-19T01:45:03;18.70;99.90
19359;DHT22;9815;52.334;20.890;2023-09-19T01:47:40;18.70;99.90
19359;DHT22;9815;52.334;20.890;2023-09-19T01:50:15;18.70;99.90
19359;DHT22;9815;52.334;20.890;2023-09-19T01:52:48;18.60;99.90
19359;DHT22;9815;52.334;20.890;2023-09-19T01:55:17;18.60;99.90
19359;DHT22;9815;52.334;20.890;2023-09-19T01:57:51;18.60;99.90
19359;DHT22;9815;52.334;20.890;2023-09-19T02:00:23;18.60;99.90
19359;DHT22;9815;52.334;20.890;2023-09-19T02:02:54;18.60;99.90
19359;DHT22;9815;52.334;20.890;2023-09-19T02:05:26;18.60;99.90
19359;DHT22;9815;52.334;20.890;2023-09-19T02:07:55;18.60;99.90
19359;DHT22;9815;52.334;20.890;2023-09-19T02:10:25;18.60;99.90
19359;DHT22;9815;52.334;20.890;2023-09-19T02:12:54;18.60;99.90
19359;DHT22;9815;52.334;20.890;2023-09-19T02:15:23;18.60;99.90
19359;DHT22;9815;52.334;20.890;2023-09-19T02:17:51;18.60;99.90
19359;DHT22;9815;52.334;20.890;2023-09-19T02:20:21;18.60;99.90
19359;DHT22;9815;52.334;20.890;2023-09-19T02:22:49;18.60;99.90
19359;DHT22;9815;52.334;20.890;2023-09-19T02:25:19;18.60;99.90
19359;DHT22;9815;52.334;20.890;2023-09-19T02:27:47;18.70;99.90
19359;DHT22;9815;52.334;20.890;2023-09-19T02:30:16;18.70;99.90
19359;DHT22;9815;52.334;20.890;2023-09-19T02:32:44;18.70;99.90
19359;DHT22;9815;52.334;20.890;2023-09-19T02:35:13;18.60;99.90
19359;DHT22;9815;52.334;20.890;2023-09-19T02:37:43;18.60;99.90
19359;DHT22;9815;52.334;20.890;2023-09-19T02:40:11;18.60;99.90
19359;DHT22;9815;52.334;20.890;2023-09-19T02:42:46;18.60;99.90
19359;DHT22;9815;52.334;20.890;2023-09-19T02:45:16;18.50;99.90
19359;DHT22;9815;52.334;20.890;2023-09-19T02:47:46;18.50;99.90
19359;DHT22;9815;52.334;20.890;2023-09-19T02:50:15;18.50;99.90
19359;DHT22;9815;52.334;20.890;2023-09-19T02:52:46;18.50;99.90
19359;DHT22;9815;52.334;20.890;2023-09-19T02:55:17;18.40;99.90
19359;DHT22;9815;52.334;20.890;2023-09-19T02:57:47;18.40;99.90
19359;DHT22;9815;52.334;20.890;2023-09-19T03:00:17;18.40;99.90
19359;DHT22;9815;52.334;20.890;2023-09-19T03:02:49;18.30;99.90
19359;DHT22;9815;52.334;20.890;2023-09-19T03:05:19;18.30;99.90
19359;DHT22;9815;52.334;20.890;2023-09-19T03:07:50;18.30;99.90
19359;DHT22;9815;52.334;20.890;2023-09-19T03:10:20;18.20;99.90
19359;DHT22;9815;52.334;20.890;2023-09-19T03:12:49;18.20;99.90
19359;DHT22;9815;52.334;20.890;2023-09-19T03:15:18;18.10;99.90
19359;DHT22;9815;52.334;20.890;2023-09-19T03:17:50;18.10;99.90
19359;DHT22;9815;52.334;20.890;2023-09-19T03:20:21;18.10;99.90
19359;DHT22;9815;52.334;20.890;2023-09-19T03:22:51;18.00;99.90
19359;DHT22;9815;52.334;20.890;2023-09-19T03:25:21;18.00;99.90
19359;DHT22;9815;52.334;20.890;2023-09-19T03:27:52;18.00;99.90
19359;DHT22;9815;52.334;20.890;2023-09-19T03:30:22;18.00;99.90
19359;DHT22;9815;52.334;20.890;2023-09-19T03:32:51;18.00;99.90
19359;DHT22;9815;52.334;20.890;2023-09-19T03:35:20;17.90;99.90
19359;DHT22;9815;52.334;20.890;2023-09-19T03:37:48;17.90;99.90
19359;DHT22;9815;52.334;20.890;2023-09-19T03:40:21;17.90;99.90
19359;DHT22;9815;52.334;20.890;2023-09-19T03:42:50;17.90;99.90
19359;DHT22;9815;52.334;20.890;2023-09-19T03:45:18;17.90;99.90
19359;DHT22;9815;52.334;20.890;2023-09-19T03:47:50;17.90;99.90
19359;DHT22;9815;52.334;20.890;2023-09-19T03:50:21;17.80;99.90
19359;DHT22;9815;52.334;20.890;2023-09-19T03:52:50;17.80;99.90
19359;DHT22;9815;52.334;20.890;2023-09-19T03:55:18;17.80;99.90
19359;DHT22;9815;52.334;20.890;2023-09-19T03:57:49;17.80;99.90
19359;DHT22;9815;52.334;20.890;2023-09-19T04:00:18;17.80;99.90
19359;DHT22;9815;52.334;20.890;2023-09-19T04:02:48;17.80;99.90
19359;DHT22;9815;52.334;20.890;2023-09-19T04:05:17;17.80;99.90
19359;DHT22;9815;52.334;20.890;2023-09-19T04:07:45;17.90;99.90
19359;DHT22;9815;52.334;20.890;2023-09-19T04:10:14;17.90;99.90
19359;DHT22;9815;52.334;20.890;2023-09-19T04:12:51;17.90;99.90
19359;DHT22;9815;52.334;20.890;2023-09-19T04:15:21;17.90;99.90
19359;DHT22;9815;52.334;20.890;2023-09-19T04:17:53;17.90;99.90
19359;DHT22;9815;52.334;20.890;2023-09-19T04:20:21;17.90;99.90
19359;DHT22;9815;52.334;20.890;2023-09-19T04:22:51;17.80;99.90
19359;DHT22;9815;52.334;20.890;2023-09-19T04:25:19;17.80;99.90
19359;DHT22;9815;52.334;20.890;2023-09-19T04:27:48;17.80;99.90
19359;DHT22;9815;52.334;20.890;2023-09-19T04:30:18;17.90;99.90
19359;DHT22;9815;52.334;20.890;2023-09-19T04:32:48;17.80;99.90
19359;DHT22;9815;52.334;20.890;2023-09-19T04:35:18;17.80;99.90
19359;DHT22;9815;52.334;20.890;2023-09-19T04:37:47;17.80;99.90
19359;DHT22;9815;52.334;20.890;2023-09-19T04:40:15;17.80;99.90
19359;DHT22;9815;52.334;20.890;2023-09-19T04:42:45;17.80;99.90
19359;DHT22;9815;52.334;20.890;2023-09-19T04:45:15;17.80;99.90
19359;DHT22;9815;52.334;20.890;2023-09-19T04:47:44;17.80;99.90
19359;DHT22;9815;52.334;20.890;2023-09-19T04:50:13;17.80;99.90
19359;DHT22;9815;52.334;20.890;2023-09-19T04:52:42;17.90;99.90
19359;DHT22;9815;52.334;20.890;2023-09-19T04:55:12;17.90;99.90
19359;DHT22;9815;52.334;20.890;2023-09-19T04:57:45;17.90;99.90
19359;DHT22;9815;52.334;20.890;2023-09-19T05:00:15;18.00;99.90
19359;DHT22;9815;52.334;20.890;2023-09-19T05:02:45;18.00;99.90
19359;DHT22;9815;52.334;20.890;2023-09-19T05:05:14;18.00;99.90
19359;DHT22;9815;52.334;20.890;2023-09-19T05:07:44;18.10;99.90
19359;DHT22;9815;52.334;20.890;2023-09-19T05:10:13;18.20;99.90
19359;DHT22;9815;52.334;20.890;2023-09-19T05:12:42;18.20;99.90
19359;DHT22;9815;52.334;20.890;2023-09-19T05:15:14;18.30;99.90
19359;DHT22;9815;52.334;20.890;2023-09-19T05:17:49;18.30;99.90
19359;DHT22;9815;52.334;20.890;2023-09-19T05:20:23;18.40;99.90
19359;DHT22;9815;52.334;20.890;2023-09-19T05:23:01;18.50;99.90
19359;DHT22;9815;52.334;20.890;2023-09-19T05:25:31;18.60;99.90
19359;DHT22;9815;52.334;20.890;2023-09-19T05:28:00;18.70;99.90
19359;DHT22;9815;52.334;20.890;2023-09-19T05:30:31;18.80;99.90
19359;DHT22;9815;52.334;20.890;2023-09-19T05:33:01;18.80;99.90
19359;DHT22;9815;52.334;20.890;2023-09-19T05:35:31;18.90;99.90
19359;DHT22;9815;52.334;20.890;2023-09-19T05:38:00;18.90;99.90
19359;DHT22;9815;52.334;20.890;2023-09-19T05:40:28;19.00;99.90
19359;DHT22;9815;52.334;20.890;2023-09-19T05:42:57;19.00;99.90
19359;DHT22;9815;52.334;20.890;2023-09-19T05:45:25;19.00;99.90
19359;DHT22;9815;52.334;20.890;2023-09-19T05:47:54;19.00;99.90
19359;DHT22;9815;52.334;20.890;2023-09-19T05:50:29;19.00;99.90
19359;DHT22;9815;52.334;20.890;2023-09-19T05:52:59;19.00;99.90
19359;DHT22;9815;52.334;20.890;2023-09-19T05:55:27;19.00;99.90
19359;DHT22;9815;52.334;20.890;2023-09-19T05:57:56;19.00;99.90
19359;DHT22;9815;52.334;20.890;2023-09-19T06:00:25;18.90;99.90
19359;DHT22;9815;52.334;20.890;2023-09-19T06:02:55;18.90;99.90
19359;DHT22;9815;52.334;20.890;2023-09-19T06:05:25;19.00;99.90
19359;DHT22;9815;52.334;20.890;2023-09-19T06:07:56;19.00;99.90
19359;DHT22;9815;52.334;20.890;2023-09-19T06:10:27;18.80;99.90
19359;DHT22;9815;52.334;20.890;2023-09-19T06:12:56;18.90;99.90
19359;DHT22;9815;52.334;20.890;2023-09-19T06:15:25;18.90;99.90
19359;DHT22;9815;52.334;20.890;2023-09-19T06:17:55;18.90;99.90
19359;DHT22;9815;52.334;20.890;2023-09-19T06:20:25;18.90;99.90
19359;DHT22;9815;52.334;20.890;2023-09-19T06:22:56;18.90;99.90
19359;DHT22;9815;52.334;20.890;2023-09-19T06:25:24;19.00;99.90
19359;DHT22;9815;52.334;20.890;2023-09-19T06:27:53;19.10;99.90
19359;DHT22;9815;52.334;20.890;2023-09-19T06:30:23;19.30;99.90
19359;DHT22;9815;52.334;20.890;2023-09-19T06:32:56;19.40;99.90
19359;DHT22;9815;52.334;20.890;2023-09-19T06:35:25;19.40;99.90
19359;DHT22;9815;52.334;20.890;2023-09-19T06:37:54;19.50;99.90
19359;DHT22;9815;52.334;20.890;2023-09-19T06:40:26;19.50;99.90
19359;DHT22;9815;52.334;20.890;2023-09-19T06:42:55;19.50;99.90
19359;DHT22;9815;52.334;20.890;2023-09-19T06:45:24;19.50;99.90
19359;DHT22;9815;52.334;20.890;2023-09-19T06:47:54;19.60;99.90
19359;DHT22;9815;52.334;20.890;2023-09-19T06:50:26;19.60;99.90
19359;DHT22;9815;52.334;20.890;2023-09-19T06:52:55;19.70;99.90
19359;DHT22;9815;52.334;20.890;2023-09-19T06:55:26;19.80;99.90
19359;DHT22;9815;52.334;20.890;2023-09-19T06:58:00;19.90;99.90
19359;DHT22;9815;52.334;20.890;2023-09-19T07:00:28;20.10;99.90
19359;DHT22;9815;52.334;20.890;2023-09-19T07:02:59;20.20;99.90
19359;DHT22;9815;52.334;20.890;2023-09-19T07:05:32;20.20;99.90
19359;DHT22;9815;52.334;20.890;2023-09-19T07:08:00;20.30;99.90
19359;DHT22;9815;52.334;20.890;2023-09-19T07:10:29;20.40;99.90
19359;DHT22;9815;52.334;20.890;2023-09-19T07:12:58;20.50;99.90
19359;DHT22;9815;52.334;20.890;2023-09-19T07:15:27;20.50;99.90
19359;DHT22;9815;52.334;20.890;2023-09-19T07:17:57;20.60;99.90
19359;DHT22;9815;52.334;20.890;2023-09-19T07:20:28;20.70;99.90
19359;DHT22;9815;52.334;20.890;2023-09-19T07:22:59;20.80;99.90
19359;DHT22;9815;52.334;20.890;2023-09-19T07:25:30;20.80;99.90
19359;DHT22;9815;52.334;20.890;2023-09-19T07:27:58;20.80;99.90
19359;DHT22;9815;52.334;20.890;2023-09-19T07:30:28;20.90;99.90
19359;DHT22;9815;52.334;20.890;2023-09-19T07:32:57;20.90;99.90
19359;DHT22;9815;52.334;20.890;2023-09-19T07:35:25;21.00;99.90
19359;DHT22;9815;52.334;20.890;2023-09-19T07:37:54;21.10;99.90
19359;DHT22;9815;52.334;20.890;2023-09-19T07:40:24;21.10;99.90
19359;DHT22;9815;52.334;20.890;2023-09-19T07:42:55;21.00;99.90
19359;DHT22;9815;52.334;20.890;2023-09-19T07:45:24;20.90;99.90
19359;DHT22;9815;52.334;20.890;2023-09-19T07:47:52;20.80;99.90
19359;DHT22;9815;52.334;20.890;2023-09-19T07:50:20;20.70;99.90
19359;DHT22;9815;52.334;20.890;2023-09-19T07:52:49;20.60;99.90
19359;DHT22;9815;52.334;20.890;2023-09-19T07:55:20;20.60;99.90
19359;DHT22;9815;52.334;20.890;2023-09-19T07:57:51;20.50;99.90
19359;DHT22;9815;52.334;20.890;2023-09-19T08:00:21;20.50;99.90
19359;DHT22;9815;52.334;20.890;2023-09-19T08:02:49;20.50;99.90
19359;DHT22;9815;52.334;20.890;2023-09-19T08:05:27;20.50;99.90
19359;DHT22;9815;52.334;20.890;2023-09-19T08:07:55;20.50;99.90
19359;DHT22;9815;52.334;20.890;2023-09-19T08:10:26;20.50;99.90
19359;DHT22;9815;52.334;20.890;2023-09-19T08:12:55;20.50;99.90
19359;DHT22;9815;52.334;20.890;2023-09-19T08:15:27;20.40;99.90
19359;DHT22;9815;52.334;20.890;2023-09-19T08:17:56;20.40;99.90
19359;DHT22;9815;52.334;20.890;2023-09-19T08:20:24;20.40;99.90
19359;DHT22;9815;52.334;20.890;2023-09-19T08:22:53;20.40;99.90
19359;DHT22;9815;52.334;20.890;2023-09-19T08:25:22;20.30;99.90
19359;DHT22;9815;52.334;20.890;2023-09-19T08:27:55;20.20;99.90
19359;DHT22;9815;52.334;20.890;2023-09-19T08:33:41;20.00;99.90
19359;DHT22;9815;52.334;20.890;2023-09-19T08:36:09;20.00;99.90
19359;DHT22;9815;52.334;20.890;2023-09-19T08:38:41;19.90;99.90
19359;DHT22;9815;52.334;20.890;2023-09-19T08:41:09;19.90;99.90
19359;DHT22;9815;52.334;20.890;2023-09-19T08:43:38;19.80;99.90
19359;DHT22;9815;52.334;20.890;2023-09-19T08:46:10;19.80;99.90
19359;DHT22;9815;52.334;20.890;2023-09-19T08:48:46;19.60;99.90
19359;DHT22;9815;52.334;20.890;2023-09-19T08:51:23;19.40;99.90
19359;DHT22;9815;52.334;20.890;2023-09-19T08:54:01;19.20;99.90
19359;DHT22;9815;52.334;20.890;2023-09-19T08:56:32;18.80;99.90
19359;DHT22;9815;52.334;20.890;2023-09-19T08:59:03;18.70;99.90
19359;DHT22;9815;52.334;20.890;2023-09-19T09:01:35;18.40;99.90
19359;DHT22;9815;52.334;20.890;2023-09-19T09:04:08;18.30;99.90
19359;DHT22;9815;52.334;20.890;2023-09-19T09:06:41;18.30;99.90
19359;DHT22;9815;52.334;20.890;2023-09-19T09:09:10;18.30;99.90
19359;DHT22;9815;52.334;20.890;2023-09-19T09:11:39;18.20;99.90
19359;DHT22;9815;52.334;20.890;2023-09-19T09:14:09;18.20;99.90
19359;DHT22;9815;52.334;20.890;2023-09-19T09:16:38;18.10;99.90
19359;DHT22;9815;52.334;20.890;2023-09-19T09:19:08;18.10;99.90
19359;DHT22;9815;52.334;20.890;2023-09-19T09:21:38;18.10;99.90
19359;DHT22;9815;52.334;20.890;2023-09-19T09:24:26;18.00;99.90
19359;DHT22;9815;52.334;20.890;2023-09-19T09:26:56;18.00;99.90
19359;DHT22;9815;52.334;20.890;2023-09-19T09:29:44;18.00;99.90
19359;DHT22;9815;52.334;20.890;2023-09-19T09:32:18;18.10;99.90
19359;DHT22;9815;52.334;20.890;2023-09-19T09:34:53;18.10;99.90
19359;DHT22;9815;52.334;20.890;2023-09-19T09:37:26;18.10;99.90
19359;DHT22;9815;52.334;20.890;2023-09-19T09:39:58;18.00;99.90
19359;DHT22;9815;52.334;20.890;2023-09-19T09:42:45;18.00;99.90
19359;DHT22;9815;52.334;20.890;2023-09-19T09:45:17;18.00;99.90
19359;DHT22;9815;52.334;20.890;2023-09-19T09:47:55;18.00;99.90
19359;DHT22;9815;52.334;20.890;2023-09-19T09:50:29;18.00;99.90
19359;DHT22;9815;52.334;20.890;2023-09-19T09:53:20;18.00;99.90
19359;DHT22;9815;52.334;20.890;2023-09-19T09:55:58;18.00;99.90
19359;DHT22;9815;52.334;20.890;2023-09-19T09:58:27;18.00;99.90
19359;DHT22;9815;52.334;20.890;2023-09-19T10:00:59;18.10;99.90
19359;DHT22;9815;52.334;20.890;2023-09-19T10:03:32;18.20;99.90
19359;DHT22;9815;52.334;20.890;2023-09-19T10:06:11;18.20;99.90
19359;DHT22;9815;52.334;20.890;2023-09-19T10:08:58;18.20;99.90
19359;DHT22;9815;52.334;20.890;2023-09-19T10:11:32;18.20;99.90
19359;DHT22;9815;52.334;20.890;2023-09-19T10:14:06;18.20;99.90
19359;DHT22;9815;52.334;20.890;2023-09-19T10:16:40;18.30;99.90
19359;DHT22;9815;52.334;20.890;2023-09-19T10:19:10;18.30;99.90
19359;DHT22;9815;52.334;20.890;2023-09-19T10:21:43;18.30;99.90
19359;DHT22;9815;52.334;20.890;2023-09-19T10:24:14;18.40;99.90
19359;DHT22;9815;52.334;20.890;2023-09-19T10:26:45;18.50;99.90
19359;DHT22;9815;52.334;20.890;2023-09-19T10:29:14;18.50;99.90
19359;DHT22;9815;52.334;20.890;2023-09-19T10:31:44;18.50;99.90
19359;DHT22;9815;52.334;20.890;2023-09-19T10:34:15;18.60;99.90
19359;DHT22;9815;52.334;20.890;2023-09-19T10:36:46;18.60;99.90
19359;DHT22;9815;52.334;20.890;2023-09-19T10:39:16;18.70;99.90
19359;DHT22;9815;52.334;20.890;2023-09-19T10:41:50;18.70;99.90
19359;DHT22;9815;52.334;20.890;2023-09-19T10:44:25;18.80;99.90
19359;DHT22;9815;52.334;20.890;2023-09-19T10:46:55;18.80;99.90
19359;DHT22;9815;52.334;20.890;2023-09-19T10:49:25;18.90;99.90
19359;DHT22;9815;52.334;20.890;2023-09-19T10:51:58;18.90;99.90
19359;DHT22;9815;52.334;20.890;2023-09-19T10:54:30;19.00;99.90
19359;DHT22;9815;52.334;20.890;2023-09-19T10:57:01;19.00;99.90
19359;DHT22;9815;52.334;20.890;2023-09-19T10:59:32;19.00;99.90
19359;DHT22;9815;52.334;20.890;2023-09-19T11:02:16;18.90;99.90
19359;DHT22;9815;52.334;20.890;2023-09-19T11:04:45;18.90;99.90
19359;DHT22;9815;52.334;20.890;2023-09-19T11:07:17;18.90;99.90
19359;DHT22;9815;52.334;20.890;2023-09-19T11:09:47;18.90;99.90
19359;DHT22;9815;52.334;20.890;2023-09-19T11:18:55;19.10;99.90
19359;DHT22;9815;52.334;20.890;2023-09-19T11:21:52;19.20;99.90
19359;DHT22;9815;52.334;20.890;2023-09-19T11:24:31;19.20;99.90
19359;DHT22;9815;52.334;20.890;2023-09-19T11:27:10;19.20;99.90
19359;DHT22;9815;52.334;20.890;2023-09-19T11:29:41;19.30;99.90
19359;DHT22;9815;52.334;20.890;2023-09-19T11:32:10;19.20;99.90
19359;DHT22;9815;52.334;20.890;2023-09-19T11:34:46;19.30;99.90
19359;DHT22;9815;52.334;20.890;2023-09-19T11:40:37;19.30;99.90
19359;DHT22;9815;52.334;20.890;2023-09-19T11:43:30;19.20;99.90
19359;DHT22;9815;52.334;20.890;2023-09-19T11:46:07;19.20;99.90
19359;DHT22;9815;52.334;20.890;2023-09-19T11:48:38;19.20;99.90
19359;DHT22;9815;52.334;20.890;2023-09-19T11:51:18;19.10;99.90
19359;DHT22;9815;52.334;20.890;2023-09-19T11:53:50;19.10;99.90
19359;DHT22;9815;52.334;20.890;2023-09-19T11:56:22;19.20;99.90
19359;DHT22;9815;52.334;20.890;2023-09-19T11:58:52;19.20;99.90
19359;DHT22;9815;52.334;20.890;2023-09-19T12:01:24;19.30;99.90
19359;DHT22;9815;52.334;20.890;2023-09-19T12:03:57;19.30;99.90
19359;DHT22;9815;52.334;20.890;2023-09-19T12:06:28;19.40;99.90
19359;DHT22;9815;52.334;20.890;2023-09-19T12:08:58;19.40;99.90
19359;DHT22;9815;52.334;20.890;2023-09-19T12:11:30;19.50;99.90
19359;DHT22;9815;52.334;20.890;2023-09-19T12:14:02;19.50;99.90
19359;DHT22;9815;52.334;20.890;2023-09-19T12:16:31;19.40;99.90
19359;DHT22;9815;52.334;20.890;2023-09-19T12:19:20;19.40;99.90
19359;DHT22;9815;52.334;20.890;2023-09-19T12:21:58;19.40;99.90
19359;DHT22;9815;52.334;20.890;2023-09-19T12:24:27;19.30;99.90
19359;DHT22;9815;52.334;20.890;2023-09-19T12:27:02;19.30;99.90
19359;DHT22;9815;52.334;20.890;2023-09-19T12:29:43;19.40;99.90
19359;DHT22;9815;52.334;20.890;2023-09-19T12:32:12;19.40;99.90
19359;DHT22;9815;52.334;20.890;2023-09-19T12:34:50;19.40;99.90
19359;DHT22;9815;52.334;20.890;2023-09-19T12:37:20;19.40;99.90
19359;DHT22;9815;52.334;20.890;2023-09-19T12:39:51;19.40;99.90
19359;DHT22;9815;52.334;20.890;2023-09-19T12:42:24;19.50;99.90
19359;DHT22;9815;52.334;20.890;2023-09-19T12:44:56;19.60;99.90
19359;DHT22;9815;52.334;20.890;2023-09-19T12:47:24;19.60;99.90
19359;DHT22;9815;52.334;20.890;2023-09-19T12:50:06;19.70;99.90
19359;DHT22;9815;52.334;20.890;2023-09-19T12:52:36;19.70;99.90
19359;DHT22;9815;52.334;20.890;2023-09-19T12:55:05;19.70;99.90
19359;DHT22;9815;52.334;20.890;2023-09-19T12:57:36;19.70;99.90
19359;DHT22;9815;52.334;20.890;2023-09-19T13:00:07;19.70;99.90
19359;DHT22;9815;52.334;20.890;2023-09-19T13:02:38;19.70;99.90
19359;DHT22;9815;52.334;20.890;2023-09-19T13:05:48;19.80;99.90
19359;DHT22;9815;52.334;20.890;2023-09-19T13:08:24;19.80;99.90
19359;DHT22;9815;52.334;20.890;2023-09-19T13:11:10;19.90;99.90
19359;DHT22;9815;52.334;20.890;2023-09-19T13:13:42;19.90;99.90
19359;DHT22;9815;52.334;20.890;2023-09-19T13:16:17;19.90;99.90
19359;DHT22;9815;52.334;20.890;2023-09-19T13:18:50;19.90;99.90
19359;DHT22;9815;52.334;20.890;2023-09-19T13:21:28;19.90;99.90
19359;DHT22;9815;52.334;20.890;2023-09-19T13:24:20;19.90;99.90
19359;DHT22;9815;52.334;20.890;2023-09-19T13:26:48;19.90;99.90
19359;DHT22;9815;52.334;20.890;2023-09-19T13:29:18;19.90;99.90
19359;DHT22;9815;52.334;20.890;2023-09-19T13:31:47;20.00;99.90
19359;DHT22;9815;52.334;20.890;2023-09-19T13:34:16;20.00;99.90
19359;DHT22;9815;52.334;20.890;2023-09-19T13:36:45;20.00;99.90
19359;DHT22;9815;52.334;20.890;2023-09-19T13:39:15;20.00;99.90
19359;DHT22;9815;52.334;20.890;2023-09-19T13:41:44;20.00;99.90
19359;DHT22;9815;52.334;20.890;2023-09-19T13:44:14;20.00;99.90
19359;DHT22;9815;52.334;20.890;2023-09-19T13:46:45;20.00;99.90
19359;DHT22;9815;52.334;20.890;2023-09-19T13:49:14;20.00;99.90
19359;DHT22;9815;52.334;20.890;2023-09-19T13:51:48;20.00;99.90
19359;DHT22;9815;52.334;20.890;2023-09-19T13:54:17;20.00;99.90
19359;DHT22;9815;52.334;20.890;2023-09-19T13:56:46;20.00;99.90
19359;DHT22;9815;52.334;20.890;2023-09-19T13:59:14;20.00;99.90
19359;DHT22;9815;52.334;20.890;2023-09-19T14:01:42;19.90;99.90
19359;DHT22;9815;52.334;20.890;2023-09-19T14:04:12;19.90;99.90
19359;DHT22;9815;52.334;20.890;2023-09-19T14:06:42;19.90;99.90
19359;DHT22;9815;52.334;20.890;2023-09-19T14:09:12;19.80;99.90
19359;DHT22;9815;52.334;20.890;2023-09-19T14:11:41;19.70;99.90
19359;DHT22;9815;52.334;20.890;2023-09-19T14:14:09;19.70;99.90
19359;DHT22;9815;52.334;20.890;2023-09-19T14:16:37;19.60;99.90
19359;DHT22;9815;52.334;20.890;2023-09-19T14:19:09;19.60;99.90
19359;DHT22;9815;52.334;20.890;2023-09-19T14:21:38;19.50;99.90
19359;DHT22;9815;52.334;20.890;2023-09-19T14:24:07;19.50;99.90
19359;DHT22;9815;52.334;20.890;2023-09-19T14:26:36;19.50;99.90
19359;DHT22;9815;52.334;20.890;2023-09-19T14:29:05;19.50;99.90
19359;DHT22;9815;52.334;20.890;2023-09-19T14:31:37;19.60;99.90
19359;DHT22;9815;52.334;20.890;2023-09-19T14:34:05;19.60;99.90
19359;DHT22;9815;52.334;20.890;2023-09-19T14:36:42;19.60;99.90
19359;DHT22;9815;52.334;20.890;2023-09-19T14:39:11;19.60;99.90
19359;DHT22;9815;52.334;20.890;2023-09-19T14:41:39;19.60;99.90
19359;DHT22;9815;52.334;20.890;2023-09-19T14:44:08;19.70;99.90
19359;DHT22;9815;52.334;20.890;2023-09-19T14:46:37;19.80;99.90
19359;DHT22;9815;52.334;20.890;2023-09-19T14:49:06;19.80;99.90
19359;DHT22;9815;52.334;20.890;2023-09-19T14:51:38;19.80;99.90
19359;DHT22;9815;52.334;20.890;2023-09-19T14:54:09;19.80;99.90
19359;DHT22;9815;52.334;20.890;2023-09-19T14:56:37;19.90;99.90
19359;DHT22;9815;52.334;20.890;2023-09-19T14:59:07;19.90;99.90
19359;DHT22;9815;52.334;20.890;2023-09-19T15:01:38;19.80;99.90
19359;DHT22;9815;52.334;20.890;2023-09-19T15:04:08;19.80;99.90
19359;DHT22;9815;52.334;20.890;2023-09-19T15:06:36;19.70;99.90
19359;DHT22;9815;52.334;20.890;2023-09-19T15:09:05;19.70;99.90
19359;DHT22;9815;52.334;20.890;2023-09-19T15:11:37;19.70;99.90
19359;DHT22;9815;52.334;20.890;2023-09-19T15:14:05;19.70;99.90
19359;DHT22;9815;52.334;20.890;2023-09-19T15:16:33;19.60;99.90
19359;DHT22;9815;52.334;20.890;2023-09-19T15:19:02;19.60;99.90
19359;DHT22;9815;52.334;20.890;2023-09-19T15:21:32;19.60;99.90
19359;DHT22;9815;52.334;20.890;2023-09-19T15:24:02;19.60;99.90
19359;DHT22;9815;52.334;20.890;2023-09-19T15:26:32;19.60;99.90
19359;DHT22;9815;52.334;20.890;2023-09-19T15:29:01;19.60;99.90
19359;DHT22;9815;52.334;20.890;2023-09-19T15:31:30;19.60;99.90
19359;DHT22;9815;52.334;20.890;2023-09-19T15:33:58;19.60;99.90
19359;DHT22;9815;52.334;20.890;2023-09-19T15:36:27;19.60;99.90
19359;DHT22;9815;52.334;20.890;2023-09-19T15:38:58;19.60;99.90
19359;DHT22;9815;52.334;20.890;2023-09-19T15:41:29;19.60;99.90
19359;DHT22;9815;52.334;20.890;2023-09-19T15:43:59;19.60;99.90
19359;DHT22;9815;52.334;20.890;2023-09-19T15:46:30;19.60;99.90
19359;DHT22;9815;52.334;20.890;2023-09-19T15:49:00;19.60;99.90
19359;DHT22;9815;52.334;20.890;2023-09-19T15:51:29;19.60;99.90
19359;DHT22;9815;52.334;20.890;2023-09-19T15:53:58;19.70;99.90
19359;DHT22;9815;52.334;20.890;2023-09-19T15:56:27;19.60;99.90
19359;DHT22;9815;52.334;20.890;2023-09-19T15:58:56;19.60;99.90
19359;DHT22;9815;52.334;20.890;2023-09-19T16:01:25;19.60;99.90
19359;DHT22;9815;52.334;20.890;2023-09-19T16:03:55;19.60;99.90
19359;DHT22;9815;52.334;20.890;2023-09-19T16:06:26;19.50;99.90
19359;DHT22;9815;52.334;20.890;2023-09-19T16:08:57;19.50;99.90